sensor_id;sensor_type;location;lat;lon;timestamp;P1;durP1;ratioP1;P2;durP2;ratioP2
65691;SDS011;52411;52.716;6.696;2023-04-03T00:01:00;3.47;;;2.00;;
65691;SDS011;52411;52.716;6.696;2023-04-03T00:03:26;4.72;;;2.58;;
65691;SDS011;52411;52.716;6.696;2023-04-03T00:05:52;6.30;;;2.20;;
65691;SDS011;52411;52.716;6.696;2023-04-03T00:08:18;4.85;;;2.20;;
65691;SDS011;52411;52.716;6.696;2023-04-03T00:10:44;5.85;;;2.38;;
65691;SDS011;52411;52.716;6.696;2023-04-03T00:13:10;5.07;;;2.17;;
65691;SDS011;52411;52.716;6.696;2023-04-03T00:15:36;6.95;;;2.33;;
65691;SDS011;52411;52.716;6.696;2023-04-03T00:18:03;5.57;;;2.50;;
65691;SDS011;52411;52.716;6.696;2023-04-03T00:20:29;4.43;;;2.08;;
65691;SDS011;52411;52.716;6.696;2023-04-03T00:22:54;5.10;;;2.53;;
65691;SDS011;52411;52.716;6.696;2023-04-03T00:25:20;7.13;;;2.55;;
65691;SDS011;52411;52.716;6.696;2023-04-03T00:27:46;7.43;;;2.75;;
65691;SDS011;52411;52.716;6.696;2023-04-03T00:30:13;5.10;;;2.50;;
65691;SDS011;52411;52.716;6.696;2023-04-03T00:32:41;5.45;;;2.85;;
65691;SDS011;52411;52.716;6.696;2023-04-03T00:35:06;5.82;;;2.42;;
65691;SDS011;52411;52.716;6.696;2023-04-03T00:37:34;4.40;;;2.60;;
65691;SDS011;52411;52.716;6.696;2023-04-03T00:39:59;6.35;;;3.08;;
65691;SDS011;52411;52.716;6.696;2023-04-03T00:42:25;5.18;;;2.53;;
65691;SDS011;52411;52.716;6.696;2023-04-03T00:47:22;6.18;;;2.47;;
65691;SDS011;52411;52.716;6.696;2023-04-03T00:49:49;6.40;;;3.05;;
65691;SDS011;52411;52.716;6.696;2023-04-03T00:52:17;5.68;;;2.58;;
65691;SDS011;52411;52.716;6.696;2023-04-03T00:54:46;7.18;;;2.80;;
65691;SDS011;52411;52.716;6.696;2023-04-03T00:57:14;5.13;;;2.70;;
65691;SDS011;52411;52.716;6.696;2023-04-03T00:59:45;5.07;;;2.60;;
65691;SDS011;52411;52.716;6.696;2023-04-03T01:02:15;3.00;;;2.10;;
65691;SDS011;52411;52.716;6.696;2023-04-03T01:04:42;7.68;;;2.80;;
65691;SDS011;52411;52.716;6.696;2023-04-03T01:07:30;5.57;;;2.83;;
65691;SDS011;52411;52.716;6.696;2023-04-03T01:09:56;4.90;;;2.45;;
65691;SDS011;52411;52.716;6.696;2023-04-03T01:12:24;5.57;;;2.58;;
65691;SDS011;52411;52.716;6.696;2023-04-03T01:14:56;7.38;;;2.80;;
65691;SDS011;52411;52.716;6.696;2023-04-03T01:22:59;5.72;;;2.45;;
65691;SDS011;52411;52.716;6.696;2023-04-03T01:25:34;4.72;;;2.60;;
65691;SDS011;52411;52.716;6.696;2023-04-03T01:28:02;5.55;;;2.33;;
65691;SDS011;52411;52.716;6.696;2023-04-03T01:30:33;5.93;;;2.80;;
65691;SDS011;52411;52.716;6.696;2023-04-03T01:33:02;6.53;;;2.78;;
65691;SDS011;52411;52.716;6.696;2023-04-03T01:35:27;7.47;;;2.92;;
65691;SDS011;52411;52.716;6.696;2023-04-03T01:37:53;6.07;;;2.78;;
65691;SDS011;52411;52.716;6.696;2023-04-03T01:40:19;7.35;;;2.70;;
65691;SDS011;52411;52.716;6.696;2023-04-03T01:42:44;5.05;;;2.75;;
65691;SDS011;52411;52.716;6.696;2023-04-03T01:45:10;5.07;;;2.63;;
65691;SDS011;52411;52.716;6.696;2023-04-03T01:47:36;5.63;;;3.00;;
65691;SDS011;52411;52.716;6.696;2023-04-03T01:50:01;8.65;;;2.78;;
65691;SDS011;52411;52.716;6.696;2023-04-03T01:52:27;4.85;;;2.65;;
65691;SDS011;52411;52.716;6.696;2023-04-03T01:54:53;9.02;;;2.85;;
65691;SDS011;52411;52.716;6.696;2023-04-03T01:57:18;6.10;;;2.70;;
65691;SDS011;52411;52.716;6.696;2023-04-03T01:59:44;5.78;;;2.67;;
65691;SDS011;52411;52.716;6.696;2023-04-03T02:02:09;5.68;;;2.53;;
65691;SDS011;52411;52.716;6.696;2023-04-03T02:04:37;5.82;;;2.78;;
65691;SDS011;52411;52.716;6.696;2023-04-03T02:07:03;7.47;;;2.80;;
65691;SDS011;52411;52.716;6.696;2023-04-03T02:09:28;7.28;;;2.97;;
65691;SDS011;52411;52.716;6.696;2023-04-03T02:11:54;4.78;;;2.70;;
65691;SDS011;52411;52.716;6.696;2023-04-03T02:14:20;10.02;;;3.22;;
65691;SDS011;52411;52.716;6.696;2023-04-03T02:16:46;6.57;;;2.88;;
65691;SDS011;52411;52.716;6.696;2023-04-03T02:19:12;6.30;;;2.72;;
65691;SDS011;52411;52.716;6.696;2023-04-03T02:21:38;5.75;;;2.80;;
65691;SDS011;52411;52.716;6.696;2023-04-03T02:24:03;6.00;;;3.08;;
65691;SDS011;52411;52.716;6.696;2023-04-03T02:26:30;7.03;;;2.90;;
65691;SDS011;52411;52.716;6.696;2023-04-03T02:28:55;6.95;;;2.80;;
65691;SDS011;52411;52.716;6.696;2023-04-03T02:31:21;6.93;;;3.08;;
65691;SDS011;52411;52.716;6.696;2023-04-03T02:33:49;9.18;;;2.95;;
65691;SDS011;52411;52.716;6.696;2023-04-03T02:36:15;9.20;;;2.95;;
65691;SDS011;52411;52.716;6.696;2023-04-03T02:38:41;6.60;;;2.83;;
65691;SDS011;52411;52.716;6.696;2023-04-03T02:41:08;8.23;;;3.08;;
65691;SDS011;52411;52.716;6.696;2023-04-03T02:43:35;6.40;;;3.50;;
65691;SDS011;52411;52.716;6.696;2023-04-03T02:46:01;6.80;;;2.97;;
65691;SDS011;52411;52.716;6.696;2023-04-03T02:48:27;5.30;;;2.83;;
65691;SDS011;52411;52.716;6.696;2023-04-03T02:50:53;7.40;;;3.13;;
65691;SDS011;52411;52.716;6.696;2023-04-03T02:53:19;8.82;;;3.38;;
65691;SDS011;52411;52.716;6.696;2023-04-03T02:55:44;7.07;;;3.25;;
65691;SDS011;52411;52.716;6.696;2023-04-03T02:58:10;7.88;;;3.10;;
65691;SDS011;52411;52.716;6.696;2023-04-03T03:00:36;6.70;;;2.95;;
65691;SDS011;52411;52.716;6.696;2023-04-03T03:03:02;6.05;;;2.90;;
65691;SDS011;52411;52.716;6.696;2023-04-03T03:05:28;5.95;;;3.33;;
65691;SDS011;52411;52.716;6.696;2023-04-03T03:07:53;9.77;;;3.20;;
65691;SDS011;52411;52.716;6.696;2023-04-03T03:10:19;8.77;;;3.47;;
65691;SDS011;52411;52.716;6.696;2023-04-03T03:12:45;7.55;;;3.20;;
65691;SDS011;52411;52.716;6.696;2023-04-03T03:15:11;8.02;;;3.03;;
65691;SDS011;52411;52.716;6.696;2023-04-03T03:17:37;5.93;;;3.10;;
65691;SDS011;52411;52.716;6.696;2023-04-03T03:20:03;6.70;;;3.00;;
65691;SDS011;52411;52.716;6.696;2023-04-03T03:22:30;5.22;;;3.00;;
65691;SDS011;52411;52.716;6.696;2023-04-03T03:24:56;5.57;;;3.17;;
65691;SDS011;52411;52.716;6.696;2023-04-03T03:27:21;7.10;;;3.15;;
65691;SDS011;52411;52.716;6.696;2023-04-03T03:29:47;7.60;;;3.22;;
65691;SDS011;52411;52.716;6.696;2023-04-03T03:32:12;8.65;;;3.42;;
65691;SDS011;52411;52.716;6.696;2023-04-03T03:34:38;4.95;;;3.17;;
65691;SDS011;52411;52.716;6.696;2023-04-03T03:37:03;6.28;;;3.35;;
65691;SDS011;52411;52.716;6.696;2023-04-03T03:39:29;12.95;;;3.70;;
65691;SDS011;52411;52.716;6.696;2023-04-03T03:41:55;6.43;;;3.45;;
65691;SDS011;52411;52.716;6.696;2023-04-03T03:44:21;8.65;;;3.30;;
65691;SDS011;52411;52.716;6.696;2023-04-03T03:46:46;8.70;;;3.20;;
65691;SDS011;52411;52.716;6.696;2023-04-03T03:49:12;8.50;;;3.25;;
65691;SDS011;52411;52.716;6.696;2023-04-03T03:51:38;7.40;;;3.95;;
65691;SDS011;52411;52.716;6.696;2023-04-03T03:54:05;8.63;;;3.22;;
65691;SDS011;52411;52.716;6.696;2023-04-03T03:56:31;6.65;;;3.55;;
65691;SDS011;52411;52.716;6.696;2023-04-03T03:58:57;7.30;;;3.90;;
65691;SDS011;52411;52.716;6.696;2023-04-03T04:01:23;7.40;;;3.88;;
65691;SDS011;52411;52.716;6.696;2023-04-03T04:03:49;8.73;;;3.42;;
65691;SDS011;52411;52.716;6.696;2023-04-03T04:06:15;10.73;;;3.70;;
65691;SDS011;52411;52.716;6.696;2023-04-03T04:08:40;6.50;;;3.60;;
65691;SDS011;52411;52.716;6.696;2023-04-03T04:11:06;10.40;;;3.80;;
65691;SDS011;52411;52.716;6.696;2023-04-03T04:13:33;13.02;;;3.58;;
65691;SDS011;52411;52.716;6.696;2023-04-03T04:15:58;8.98;;;3.88;;
65691;SDS011;52411;52.716;6.696;2023-04-03T04:18:24;7.07;;;3.80;;
65691;SDS011;52411;52.716;6.696;2023-04-03T04:20:50;9.85;;;3.83;;
65691;SDS011;52411;52.716;6.696;2023-04-03T04:23:17;6.97;;;3.60;;
65691;SDS011;52411;52.716;6.696;2023-04-03T04:25:46;9.38;;;4.03;;
65691;SDS011;52411;52.716;6.696;2023-04-03T04:28:12;12.35;;;3.95;;
65691;SDS011;52411;52.716;6.696;2023-04-03T04:30:38;8.40;;;3.40;;
65691;SDS011;52411;52.716;6.696;2023-04-03T04:33:04;11.13;;;3.40;;
65691;SDS011;52411;52.716;6.696;2023-04-03T04:35:30;10.38;;;4.05;;
65691;SDS011;52411;52.716;6.696;2023-04-03T04:37:56;9.63;;;3.83;;
65691;SDS011;52411;52.716;6.696;2023-04-03T04:40:21;8.93;;;3.85;;
65691;SDS011;52411;52.716;6.696;2023-04-03T04:42:47;7.93;;;3.50;;
65691;SDS011;52411;52.716;6.696;2023-04-03T04:45:13;17.60;;;3.90;;
65691;SDS011;52411;52.716;6.696;2023-04-03T04:47:39;7.10;;;3.63;;
65691;SDS011;52411;52.716;6.696;2023-04-03T04:50:05;9.40;;;3.67;;
65691;SDS011;52411;52.716;6.696;2023-04-03T04:52:31;8.30;;;3.65;;
65691;SDS011;52411;52.716;6.696;2023-04-03T04:54:57;9.27;;;3.40;;
65691;SDS011;52411;52.716;6.696;2023-04-03T04:57:22;7.15;;;4.00;;
65691;SDS011;52411;52.716;6.696;2023-04-03T04:59:48;8.20;;;3.70;;
65691;SDS011;52411;52.716;6.696;2023-04-03T05:02:14;7.93;;;3.35;;
65691;SDS011;52411;52.716;6.696;2023-04-03T05:04:40;8.75;;;3.50;;
65691;SDS011;52411;52.716;6.696;2023-04-03T05:07:05;9.80;;;3.85;;
65691;SDS011;52411;52.716;6.696;2023-04-03T05:09:31;9.57;;;3.88;;
65691;SDS011;52411;52.716;6.696;2023-04-03T05:11:56;6.78;;;3.72;;
65691;SDS011;52411;52.716;6.696;2023-04-03T05:14:24;12.63;;;4.47;;
65691;SDS011;52411;52.716;6.696;2023-04-03T05:16:50;8.57;;;4.13;;
65691;SDS011;52411;52.716;6.696;2023-04-03T05:19:19;12.93;;;5.00;;
65691;SDS011;52411;52.716;6.696;2023-04-03T05:21:45;9.23;;;4.95;;
65691;SDS011;52411;52.716;6.696;2023-04-03T05:24:11;9.07;;;4.13;;
65691;SDS011;52411;52.716;6.696;2023-04-03T05:26:37;9.95;;;4.40;;
65691;SDS011;52411;52.716;6.696;2023-04-03T05:29:03;10.90;;;4.63;;
65691;SDS011;52411;52.716;6.696;2023-04-03T05:31:29;10.30;;;4.45;;
65691;SDS011;52411;52.716;6.696;2023-04-03T05:33:54;13.60;;;4.93;;
65691;SDS011;52411;52.716;6.696;2023-04-03T05:36:20;9.23;;;4.38;;
65691;SDS011;52411;52.716;6.696;2023-04-03T05:38:48;8.23;;;3.78;;
65691;SDS011;52411;52.716;6.696;2023-04-03T05:41:15;9.60;;;4.88;;
65691;SDS011;52411;52.716;6.696;2023-04-03T05:43:40;8.45;;;4.47;;
65691;SDS011;52411;52.716;6.696;2023-04-03T05:46:10;11.88;;;4.22;;
65691;SDS011;52411;52.716;6.696;2023-04-03T05:48:45;9.27;;;3.88;;
65691;SDS011;52411;52.716;6.696;2023-04-03T05:51:15;10.45;;;3.95;;
65691;SDS011;52411;52.716;6.696;2023-04-03T05:53:43;11.75;;;5.20;;
65691;SDS011;52411;52.716;6.696;2023-04-03T05:56:10;11.30;;;3.50;;
65691;SDS011;52411;52.716;6.696;2023-04-03T05:58:36;11.38;;;4.25;;
65691;SDS011;52411;52.716;6.696;2023-04-03T06:01:01;7.72;;;3.80;;
65691;SDS011;52411;52.716;6.696;2023-04-03T06:03:27;7.82;;;3.55;;
65691;SDS011;52411;52.716;6.696;2023-04-03T06:05:52;10.77;;;3.58;;
65691;SDS011;52411;52.716;6.696;2023-04-03T06:08:18;11.48;;;3.78;;
65691;SDS011;52411;52.716;6.696;2023-04-03T06:10:44;18.52;;;4.15;;
65691;SDS011;52411;52.716;6.696;2023-04-03T06:13:10;7.22;;;3.38;;
65691;SDS011;52411;52.716;6.696;2023-04-03T06:15:36;10.45;;;3.78;;
65691;SDS011;52411;52.716;6.696;2023-04-03T06:18:03;7.20;;;3.40;;
65691;SDS011;52411;52.716;6.696;2023-04-03T06:20:29;8.55;;;3.22;;
65691;SDS011;52411;52.716;6.696;2023-04-03T06:22:54;7.53;;;3.20;;
65691;SDS011;52411;52.716;6.696;2023-04-03T06:25:20;9.38;;;3.70;;
65691;SDS011;52411;52.716;6.696;2023-04-03T06:27:46;7.93;;;2.92;;
65691;SDS011;52411;52.716;6.696;2023-04-03T06:30:12;6.82;;;3.22;;
65691;SDS011;52411;52.716;6.696;2023-04-03T06:32:37;11.60;;;3.40;;
65691;SDS011;52411;52.716;6.696;2023-04-03T06:35:04;13.43;;;3.63;;
65691;SDS011;52411;52.716;6.696;2023-04-03T06:37:30;8.70;;;3.72;;
65691;SDS011;52411;52.716;6.696;2023-04-03T06:39:57;7.80;;;3.35;;
65691;SDS011;52411;52.716;6.696;2023-04-03T06:42:23;8.85;;;3.38;;
65691;SDS011;52411;52.716;6.696;2023-04-03T06:44:49;9.95;;;3.38;;
65691;SDS011;52411;52.716;6.696;2023-04-03T06:47:15;9.02;;;3.33;;
65691;SDS011;52411;52.716;6.696;2023-04-03T06:49:42;9.43;;;3.45;;
65691;SDS011;52411;52.716;6.696;2023-04-03T06:52:08;8.35;;;3.67;;
65691;SDS011;52411;52.716;6.696;2023-04-03T06:54:34;6.10;;;2.95;;
65691;SDS011;52411;52.716;6.696;2023-04-03T06:57:00;7.18;;;3.40;;
65691;SDS011;52411;52.716;6.696;2023-04-03T06:59:26;6.70;;;2.97;;
65691;SDS011;52411;52.716;6.696;2023-04-03T07:01:51;8.57;;;3.13;;
65691;SDS011;52411;52.716;6.696;2023-04-03T07:04:17;11.48;;;3.17;;
65691;SDS011;52411;52.716;6.696;2023-04-03T07:06:45;9.25;;;3.40;;
65691;SDS011;52411;52.716;6.696;2023-04-03T07:09:13;7.30;;;2.65;;
65691;SDS011;52411;52.716;6.696;2023-04-03T07:11:39;8.52;;;3.03;;
65691;SDS011;52411;52.716;6.696;2023-04-03T07:14:05;7.72;;;3.03;;
65691;SDS011;52411;52.716;6.696;2023-04-03T07:16:32;6.93;;;3.00;;
65691;SDS011;52411;52.716;6.696;2023-04-03T07:18:59;9.93;;;3.00;;
65691;SDS011;52411;52.716;6.696;2023-04-03T07:21:25;8.55;;;3.03;;
65691;SDS011;52411;52.716;6.696;2023-04-03T07:23:51;9.35;;;3.03;;
65691;SDS011;52411;52.716;6.696;2023-04-03T07:26:16;7.55;;;2.60;;
65691;SDS011;52411;52.716;6.696;2023-04-03T07:28:42;5.65;;;2.80;;
65691;SDS011;52411;52.716;6.696;2023-04-03T07:31:12;11.23;;;3.20;;
65691;SDS011;52411;52.716;6.696;2023-04-03T07:33:38;8.25;;;3.00;;
65691;SDS011;52411;52.716;6.696;2023-04-03T07:36:05;6.63;;;2.90;;
65691;SDS011;52411;52.716;6.696;2023-04-03T07:38:32;5.90;;;2.70;;
65691;SDS011;52411;52.716;6.696;2023-04-03T07:40:58;11.02;;;3.25;;
65691;SDS011;52411;52.716;6.696;2023-04-03T07:43:24;6.03;;;2.78;;
65691;SDS011;52411;52.716;6.696;2023-04-03T07:45:50;9.15;;;3.00;;
65691;SDS011;52411;52.716;6.696;2023-04-03T07:48:17;6.28;;;2.80;;
65691;SDS011;52411;52.716;6.696;2023-04-03T07:50:44;4.28;;;2.50;;
65691;SDS011;52411;52.716;6.696;2023-04-03T07:53:10;6.95;;;2.30;;
65691;SDS011;52411;52.716;6.696;2023-04-03T07:55:36;8.82;;;2.83;;
65691;SDS011;52411;52.716;6.696;2023-04-03T08:00:37;4.85;;;2.28;;
65691;SDS011;52411;52.716;6.696;2023-04-03T08:03:03;6.20;;;2.38;;
65691;SDS011;52411;52.716;6.696;2023-04-03T08:05:30;5.05;;;2.20;;
65691;SDS011;52411;52.716;6.696;2023-04-03T08:08:00;5.03;;;2.17;;
65691;SDS011;52411;52.716;6.696;2023-04-03T08:10:26;5.82;;;2.10;;
65691;SDS011;52411;52.716;6.696;2023-04-03T08:12:54;5.63;;;2.35;;
65691;SDS011;52411;52.716;6.696;2023-04-03T08:15:20;8.25;;;2.15;;
65691;SDS011;52411;52.716;6.696;2023-04-03T08:17:46;6.28;;;2.20;;
65691;SDS011;52411;52.716;6.696;2023-04-03T08:20:11;4.72;;;2.25;;
65691;SDS011;52411;52.716;6.696;2023-04-03T08:22:37;5.45;;;2.05;;
65691;SDS011;52411;52.716;6.696;2023-04-03T08:25:03;7.65;;;2.38;;
65691;SDS011;52411;52.716;6.696;2023-04-03T08:27:28;4.32;;;2.05;;
65691;SDS011;52411;52.716;6.696;2023-04-03T08:29:54;5.95;;;2.28;;
65691;SDS011;52411;52.716;6.696;2023-04-03T08:32:22;7.43;;;2.40;;
65691;SDS011;52411;52.716;6.696;2023-04-03T08:34:48;4.38;;;1.85;;
65691;SDS011;52411;52.716;6.696;2023-04-03T08:37:13;4.95;;;2.13;;
65691;SDS011;52411;52.716;6.696;2023-04-03T08:39:41;9.30;;;2.30;;
65691;SDS011;52411;52.716;6.696;2023-04-03T08:42:23;6.72;;;1.73;;
65691;SDS011;52411;52.716;6.696;2023-04-03T08:45:14;2.75;;;1.60;;
65691;SDS011;52411;52.716;6.696;2023-04-03T08:48:42;3.80;;;1.50;;
65691;SDS011;52411;52.716;6.696;2023-04-03T08:50:41;7.57;;;2.13;;
65691;SDS011;52411;52.716;6.696;2023-04-03T08:53:14;3.38;;;1.75;;
65691;SDS011;52411;52.716;6.696;2023-04-03T08:55:43;3.42;;;1.60;;
65691;SDS011;52411;52.716;6.696;2023-04-03T08:58:20;2.47;;;1.58;;
65691;SDS011;52411;52.716;6.696;2023-04-03T09:00:50;6.40;;;1.60;;
65691;SDS011;52411;52.716;6.696;2023-04-03T09:03:22;2.92;;;1.63;;
65691;SDS011;52411;52.716;6.696;2023-04-03T09:05:51;6.78;;;1.40;;
65691;SDS011;52411;52.716;6.696;2023-04-03T09:11:09;4.67;;;1.80;;
65691;SDS011;52411;52.716;6.696;2023-04-03T09:13:49;3.88;;;1.77;;
65691;SDS011;52411;52.716;6.696;2023-04-03T09:16:32;3.08;;;1.50;;
65691;SDS011;52411;52.716;6.696;2023-04-03T09:19:23;3.60;;;1.40;;
65691;SDS011;52411;52.716;6.696;2023-04-03T09:24:45;3.55;;;1.48;;
65691;SDS011;52411;52.716;6.696;2023-04-03T09:27:14;4.65;;;1.50;;
65691;SDS011;52411;52.716;6.696;2023-04-03T09:29:40;4.57;;;1.52;;
65691;SDS011;52411;52.716;6.696;2023-04-03T09:34:58;3.67;;;1.23;;
65691;SDS011;52411;52.716;6.696;2023-04-03T09:37:47;2.30;;;1.42;;
65691;SDS011;52411;52.716;6.696;2023-04-03T09:42:51;5.60;;;1.70;;
65691;SDS011;52411;52.716;6.696;2023-04-03T09:45:23;2.28;;;1.35;;
65691;SDS011;52411;52.716;6.696;2023-04-03T09:48:15;2.90;;;1.48;;
65691;SDS011;52411;52.716;6.696;2023-04-03T09:58:47;3.47;;;1.48;;
65691;SDS011;52411;52.716;6.696;2023-04-03T10:04:04;2.50;;;1.38;;
65691;SDS011;52411;52.716;6.696;2023-04-03T10:09:27;2.78;;;1.52;;
65691;SDS011;52411;52.716;6.696;2023-04-03T10:12:01;4.07;;;1.50;;
65691;SDS011;52411;52.716;6.696;2023-04-03T10:14:34;2.25;;;1.45;;
65691;SDS011;52411;52.716;6.696;2023-04-03T10:17:09;3.40;;;1.60;;
65691;SDS011;52411;52.716;6.696;2023-04-03T10:27:55;3.90;;;1.60;;
65691;SDS011;52411;52.716;6.696;2023-04-03T10:36:02;5.10;;;1.70;;
65691;SDS011;52411;52.716;6.696;2023-04-03T10:38:48;4.65;;;1.40;;
65691;SDS011;52411;52.716;6.696;2023-04-03T10:44:12;3.60;;;1.40;;
65691;SDS011;52411;52.716;6.696;2023-04-03T10:46:47;2.28;;;1.30;;
65691;SDS011;52411;52.716;6.696;2023-04-03T10:49:24;4.20;;;1.38;;
65691;SDS011;52411;52.716;6.696;2023-04-03T10:54:39;4.88;;;1.50;;
65691;SDS011;52411;52.716;6.696;2023-04-03T10:57:08;3.10;;;1.25;;
65691;SDS011;52411;52.716;6.696;2023-04-03T10:59:37;3.42;;;1.20;;
65691;SDS011;52411;52.716;6.696;2023-04-03T11:04:48;2.05;;;1.33;;
65691;SDS011;52411;52.716;6.696;2023-04-03T11:07:19;6.60;;;1.75;;
65691;SDS011;52411;52.716;6.696;2023-04-03T11:09:48;2.30;;;1.50;;
65691;SDS011;52411;52.716;6.696;2023-04-03T11:12:21;4.15;;;1.60;;
65691;SDS011;52411;52.716;6.696;2023-04-03T11:14:49;5.10;;;1.60;;
65691;SDS011;52411;52.716;6.696;2023-04-03T11:25:23;5.45;;;1.48;;
65691;SDS011;52411;52.716;6.696;2023-04-03T11:36:10;4.07;;;1.63;;
65691;SDS011;52411;52.716;6.696;2023-04-03T11:38:44;8.40;;;1.80;;
65691;SDS011;52411;52.716;6.696;2023-04-03T11:41:12;3.78;;;1.70;;
65691;SDS011;52411;52.716;6.696;2023-04-03T11:43:40;5.72;;;1.70;;
65691;SDS011;52411;52.716;6.696;2023-04-03T11:46:19;7.38;;;1.88;;
65691;SDS011;52411;52.716;6.696;2023-04-03T11:48:45;6.10;;;1.60;;
65691;SDS011;52411;52.716;6.696;2023-04-03T11:53:41;4.97;;;1.63;;
65691;SDS011;52411;52.716;6.696;2023-04-03T12:01:48;4.95;;;1.58;;
65691;SDS011;52411;52.716;6.696;2023-04-03T12:04:19;4.85;;;1.83;;
65691;SDS011;52411;52.716;6.696;2023-04-03T12:10:13;7.35;;;1.80;;
65691;SDS011;52411;52.716;6.696;2023-04-03T12:12:26;4.68;;;1.70;;
65691;SDS011;52411;52.716;6.696;2023-04-03T12:14:55;3.20;;;1.40;;
65691;SDS011;52411;52.716;6.696;2023-04-03T12:17:36;3.13;;;1.55;;
65691;SDS011;52411;52.716;6.696;2023-04-03T12:20:12;4.55;;;1.75;;
65691;SDS011;52411;52.716;6.696;2023-04-03T12:25:59;3.03;;;1.40;;
65691;SDS011;52411;52.716;6.696;2023-04-03T12:28:29;5.30;;;1.95;;
65691;SDS011;52411;52.716;6.696;2023-04-03T12:36:29;3.80;;;1.60;;
65691;SDS011;52411;52.716;6.696;2023-04-03T12:39:14;4.47;;;1.70;;
65691;SDS011;52411;52.716;6.696;2023-04-03T12:45:09;4.38;;;1.73;;
65691;SDS011;52411;52.716;6.696;2023-04-03T12:47:47;3.17;;;1.50;;
65691;SDS011;52411;52.716;6.696;2023-04-03T12:50:27;3.13;;;1.60;;
65691;SDS011;52411;52.716;6.696;2023-04-03T12:53:05;3.28;;;1.67;;
65691;SDS011;52411;52.716;6.696;2023-04-03T12:55:36;4.93;;;1.80;;
65691;SDS011;52411;52.716;6.696;2023-04-03T12:58:15;6.90;;;2.95;;
65691;SDS011;52411;52.716;6.696;2023-04-03T13:00:45;4.20;;;1.63;;
65691;SDS011;52411;52.716;6.696;2023-04-03T13:03:20;7.70;;;1.80;;
65691;SDS011;52411;52.716;6.696;2023-04-03T13:05:49;3.60;;;2.00;;
65691;SDS011;52411;52.716;6.696;2023-04-03T13:08:15;7.88;;;2.10;;
65691;SDS011;52411;52.716;6.696;2023-04-03T13:10:54;4.20;;;1.70;;
65691;SDS011;52411;52.716;6.696;2023-04-03T13:13:30;4.90;;;2.00;;
65691;SDS011;52411;52.716;6.696;2023-04-03T13:15:56;3.33;;;1.88;;
65691;SDS011;52411;52.716;6.696;2023-04-03T13:20:49;3.85;;;2.00;;
65691;SDS011;52411;52.716;6.696;2023-04-03T13:23:16;4.18;;;2.10;;
65691;SDS011;52411;52.716;6.696;2023-04-03T13:25:45;3.63;;;1.77;;
65691;SDS011;52411;52.716;6.696;2023-04-03T13:28:13;3.88;;;1.70;;
65691;SDS011;52411;52.716;6.696;2023-04-03T13:33:45;3.67;;;2.03;;
65691;SDS011;52411;52.716;6.696;2023-04-03T13:36:25;6.35;;;2.08;;
65691;SDS011;52411;52.716;6.696;2023-04-03T13:41:39;3.63;;;1.77;;
65691;SDS011;52411;52.716;6.696;2023-04-03T13:46:43;6.03;;;2.00;;
65691;SDS011;52411;52.716;6.696;2023-04-03T13:49:19;4.47;;;1.90;;
65691;SDS011;52411;52.716;6.696;2023-04-03T13:51:57;3.83;;;1.95;;
65691;SDS011;52411;52.716;6.696;2023-04-03T13:54:25;5.53;;;1.98;;
65691;SDS011;52411;52.716;6.696;2023-04-03T13:56:57;9.55;;;2.00;;
65691;SDS011;52411;52.716;6.696;2023-04-03T13:59:27;4.05;;;1.92;;
65691;SDS011;52411;52.716;6.696;2023-04-03T14:07:12;3.05;;;1.90;;
65691;SDS011;52411;52.716;6.696;2023-04-03T14:09:39;5.53;;;2.05;;
65691;SDS011;52411;52.716;6.696;2023-04-03T14:12:06;4.93;;;1.98;;
65691;SDS011;52411;52.716;6.696;2023-04-03T14:17:09;3.67;;;2.03;;
65691;SDS011;52411;52.716;6.696;2023-04-03T14:19:41;6.15;;;2.63;;
65691;SDS011;52411;52.716;6.696;2023-04-03T14:22:12;4.45;;;2.00;;
65691;SDS011;52411;52.716;6.696;2023-04-03T14:24:47;4.72;;;2.03;;
65691;SDS011;52411;52.716;6.696;2023-04-03T14:29:45;8.68;;;2.20;;
65691;SDS011;52411;52.716;6.696;2023-04-03T14:32:14;3.75;;;1.90;;
65691;SDS011;52411;52.716;6.696;2023-04-03T14:34:42;4.80;;;2.00;;
65691;SDS011;52411;52.716;6.696;2023-04-03T14:37:16;3.58;;;1.98;;
65691;SDS011;52411;52.716;6.696;2023-04-03T14:39:44;4.93;;;2.38;;
65691;SDS011;52411;52.716;6.696;2023-04-03T14:42:15;4.20;;;2.20;;
65691;SDS011;52411;52.716;6.696;2023-04-03T14:44:42;4.22;;;1.83;;
65691;SDS011;52411;52.716;6.696;2023-04-03T14:47:12;4.10;;;1.92;;
65691;SDS011;52411;52.716;6.696;2023-04-03T14:49:38;6.40;;;2.00;;
65691;SDS011;52411;52.716;6.696;2023-04-03T14:52:04;7.28;;;1.73;;
65691;SDS011;52411;52.716;6.696;2023-04-03T14:54:30;6.75;;;2.10;;
65691;SDS011;52411;52.716;6.696;2023-04-03T14:56:56;4.00;;;1.98;;
65691;SDS011;52411;52.716;6.696;2023-04-03T14:59:23;6.15;;;2.20;;
65691;SDS011;52411;52.716;6.696;2023-04-03T15:01:56;5.18;;;2.00;;
65691;SDS011;52411;52.716;6.696;2023-04-03T15:04:22;4.07;;;2.10;;
65691;SDS011;52411;52.716;6.696;2023-04-03T15:06:48;5.43;;;2.20;;
65691;SDS011;52411;52.716;6.696;2023-04-03T15:11:50;13.90;;;2.30;;
65691;SDS011;52411;52.716;6.696;2023-04-03T15:14:16;9.93;;;2.50;;
65691;SDS011;52411;52.716;6.696;2023-04-03T15:16:41;5.18;;;2.33;;
65691;SDS011;52411;52.716;6.696;2023-04-03T15:19:07;5.43;;;2.20;;
65691;SDS011;52411;52.716;6.696;2023-04-03T15:21:33;4.60;;;2.05;;
65691;SDS011;52411;52.716;6.696;2023-04-03T15:23:59;5.65;;;3.30;;
65691;SDS011;52411;52.716;6.696;2023-04-03T15:26:24;4.28;;;2.30;;
65691;SDS011;52411;52.716;6.696;2023-04-03T15:28:50;5.65;;;2.60;;
65691;SDS011;52411;52.716;6.696;2023-04-03T15:31:16;5.20;;;2.67;;
65691;SDS011;52411;52.716;6.696;2023-04-03T15:33:41;5.80;;;3.70;;
65691;SDS011;52411;52.716;6.696;2023-04-03T15:36:07;8.73;;;4.35;;
65691;SDS011;52411;52.716;6.696;2023-04-03T15:38:33;5.22;;;2.40;;
65691;SDS011;52411;52.716;6.696;2023-04-03T15:40:59;5.70;;;2.67;;
65691;SDS011;52411;52.716;6.696;2023-04-03T15:43:25;7.18;;;2.63;;
65691;SDS011;52411;52.716;6.696;2023-04-03T15:45:50;6.05;;;2.20;;
65691;SDS011;52411;52.716;6.696;2023-04-03T15:48:16;4.30;;;2.25;;
65691;SDS011;52411;52.716;6.696;2023-04-03T15:50:42;6.68;;;3.10;;
65691;SDS011;52411;52.716;6.696;2023-04-03T15:53:08;5.20;;;2.30;;
65691;SDS011;52411;52.716;6.696;2023-04-03T15:55:35;4.55;;;2.30;;
65691;SDS011;52411;52.716;6.696;2023-04-03T15:58:03;3.58;;;2.30;;
65691;SDS011;52411;52.716;6.696;2023-04-03T16:00:29;5.13;;;2.30;;
65691;SDS011;52411;52.716;6.696;2023-04-03T16:03:00;4.72;;;2.17;;
65691;SDS011;52411;52.716;6.696;2023-04-03T16:05:30;3.90;;;2.20;;
65691;SDS011;52411;52.716;6.696;2023-04-03T16:07:56;3.92;;;2.20;;
65691;SDS011;52411;52.716;6.696;2023-04-03T16:10:24;6.20;;;2.20;;
65691;SDS011;52411;52.716;6.696;2023-04-03T16:12:50;5.45;;;2.53;;
65691;SDS011;52411;52.716;6.696;2023-04-03T16:15:15;5.13;;;2.30;;
65691;SDS011;52411;52.716;6.696;2023-04-03T16:17:41;3.70;;;1.92;;
65691;SDS011;52411;52.716;6.696;2023-04-03T16:20:08;4.75;;;1.92;;
65691;SDS011;52411;52.716;6.696;2023-04-03T16:22:35;4.03;;;2.33;;
65691;SDS011;52411;52.716;6.696;2023-04-03T16:25:01;5.88;;;2.13;;
65691;SDS011;52411;52.716;6.696;2023-04-03T16:27:28;7.90;;;2.33;;
65691;SDS011;52411;52.716;6.696;2023-04-03T16:29:56;8.05;;;2.33;;
65691;SDS011;52411;52.716;6.696;2023-04-03T16:32:22;5.72;;;2.40;;
65691;SDS011;52411;52.716;6.696;2023-04-03T16:34:49;5.03;;;2.20;;
65691;SDS011;52411;52.716;6.696;2023-04-03T16:37:15;5.78;;;2.50;;
65691;SDS011;52411;52.716;6.696;2023-04-03T16:39:41;9.13;;;2.65;;
65691;SDS011;52411;52.716;6.696;2023-04-03T16:42:07;6.13;;;2.60;;
65691;SDS011;52411;52.716;6.696;2023-04-03T16:44:34;4.93;;;1.92;;
65691;SDS011;52411;52.716;6.696;2023-04-03T16:47:00;3.63;;;2.10;;
65691;SDS011;52411;52.716;6.696;2023-04-03T16:49:25;5.88;;;2.33;;
65691;SDS011;52411;52.716;6.696;2023-04-03T16:51:55;6.00;;;2.17;;